createdAt,value
2022-08-22T00:01:08.588Z,17.19
2022-08-22T00:02:49.988Z,16.96
2022-08-22T00:03:10.963Z,16.01
2022-08-22T00:04:23.228Z,17.18
2022-08-22T00:07:47.374Z,17.17
2022-08-22T00:11:00.178Z,17.15
2022-08-22T00:14:20.565Z,17.16
2022-08-22T00:17:37.358Z,17.18
2022-08-22T00:20:49.401Z,17.18
2022-08-22T00:24:16.772Z,17.19
2022-08-22T00:27:29.149Z,17.18
2022-08-22T00:30:48.073Z,17.21
2022-08-22T00:34:00.568Z,17.21
2022-08-22T00:37:13.406Z,17.21
2022-08-22T00:40:38.442Z,17.26
2022-08-22T00:44:11.508Z,17.26
2022-08-22T00:47:45.003Z,17.29
2022-08-22T00:51:13.030Z,17.34
2022-08-22T00:54:30.966Z,17.30
2022-08-22T00:57:55.999Z,17.27
2022-08-22T01:01:09.903Z,17.22
2022-08-22T01:04:36.798Z,17.20
2022-08-22T01:08:00.530Z,17.21
2022-08-22T01:11:25.566Z,17.22
2022-08-22T01:14:48.020Z,17.19
2022-08-22T01:18:20.022Z,17.20
2022-08-22T01:22:03.379Z,17.17
2022-08-22T01:25:42.994Z,17.15
2022-08-22T01:29:33.838Z,17.10
2022-08-22T01:33:26.975Z,17.08
2022-08-22T01:37:11.994Z,17.10
2022-08-22T01:40:53.450Z,17.10
2022-08-22T01:44:16.339Z,17.08
2022-08-22T01:47:28.556Z,17.04
2022-08-22T01:50:49.161Z,17.07
2022-08-22T01:54:04.885Z,17.06
2022-08-22T01:57:12.377Z,17.03
2022-08-22T02:00:34.695Z,17.01
2022-08-22T02:03:54.276Z,17.05
2022-08-22T02:07:06.863Z,17.10
2022-08-22T02:10:23.116Z,17.14
2022-08-22T02:13:54.455Z,17.16
2022-08-22T02:17:17.328Z,17.14
2022-08-22T02:20:27.461Z,17.11
2022-08-22T02:23:50.093Z,17.12
2022-08-22T02:27:16.250Z,17.14
2022-08-22T02:30:25.283Z,17.10
2022-08-22T02:33:38.145Z,17.12
2022-08-22T02:36:50.869Z,17.12
2022-08-22T02:40:09.543Z,17.15
2022-08-22T02:43:24.580Z,17.19
2022-08-22T02:46:42.716Z,17.20
2022-08-22T02:50:00.720Z,17.21
2022-08-22T02:53:16.819Z,17.20
2022-08-22T02:56:28.022Z,17.18
2022-08-22T02:59:40.424Z,17.18
2022-08-22T03:03:04.212Z,17.23
2022-08-22T03:06:36.806Z,17.27
2022-08-22T03:09:49.366Z,17.25
2022-08-22T03:13:06.726Z,17.24
2022-08-22T03:16:21.713Z,17.24
2022-08-22T03:19:34.829Z,17.26
2022-08-22T03:22:49.137Z,17.31
2022-08-22T03:26:07.983Z,17.36
2022-08-22T03:29:20.787Z,17.39
2022-08-22T03:32:54.716Z,17.43
2022-08-22T03:36:07.484Z,17.42
2022-08-22T03:39:21.076Z,17.43
2022-08-22T03:42:56.496Z,17.47
2022-08-22T03:46:39.991Z,17.45
2022-08-22T03:50:12.237Z,17.48
2022-08-22T03:53:39.161Z,17.52
2022-08-22T03:57:21.886Z,17.54
2022-08-22T04:01:09.985Z,17.59
2022-08-22T04:04:57.981Z,17.62
2022-08-22T04:08:46.837Z,17.64
2022-08-22T04:12:14.598Z,17.64
2022-08-22T04:15:57.095Z,17.70
2022-08-22T04:19:28.300Z,17.74
2022-08-22T04:23:03.405Z,17.79
2022-08-22T04:26:16.490Z,17.83
2022-08-22T04:29:28.422Z,17.86
2022-08-22T04:32:40.717Z,17.86
2022-08-22T04:36:03.268Z,17.88
2022-08-22T04:39:18.650Z,17.90
2022-08-22T04:42:34.901Z,17.95
2022-08-22T04:45:44.639Z,17.99
2022-08-22T04:49:00.931Z,18.05
2022-08-22T04:52:17.457Z,18.08
2022-08-22T04:55:36.324Z,18.14
2022-08-22T04:58:50.794Z,18.14
2022-08-22T05:02:00.630Z,18.15
2022-08-22T05:05:14.278Z,18.16
2022-08-22T05:08:27.474Z,18.18
2022-08-22T05:11:36.471Z,18.17
2022-08-22T05:14:50.481Z,18.19
2022-08-22T05:18:09.631Z,18.18
2022-08-22T05:21:18.280Z,18.19
2022-08-22T05:24:28.093Z,18.22
2022-08-22T05:27:40.287Z,18.26
2022-08-22T05:30:51.631Z,18.28
2022-08-22T05:34:04.262Z,18.34
2022-08-22T05:37:15.889Z,18.36
2022-08-22T05:40:26.523Z,18.39
2022-08-22T05:43:32.532Z,18.40
2022-08-22T05:46:46.991Z,18.44
2022-08-22T05:50:01.292Z,18.46
2022-08-22T05:53:14.703Z,18.48
2022-08-22T05:56:30.416Z,18.47
2022-08-22T05:59:42.113Z,18.49
2022-08-22T06:03:03.373Z,18.48
2022-08-22T06:06:18.025Z,18.47
2022-08-22T06:09:35.282Z,18.49
2022-08-22T06:12:47.895Z,18.49
2022-08-22T06:15:58.675Z,18.53
2022-08-22T06:19:19.388Z,18.54
2022-08-22T06:22:30.933Z,18.56
2022-08-22T06:25:41.934Z,18.55
2022-08-22T06:28:54.472Z,18.53
2022-08-22T06:32:06.742Z,18.52
2022-08-22T06:35:22.682Z,18.51
2022-08-22T06:38:33.756Z,18.55
2022-08-22T06:41:42.629Z,18.54
2022-08-22T06:44:59.171Z,18.56
2022-08-22T06:48:19.135Z,18.53
2022-08-22T06:51:31.213Z,18.51
2022-08-22T06:54:40.622Z,18.48
2022-08-22T06:57:53.840Z,18.39
2022-08-22T07:01:11.924Z,18.31
2022-08-22T07:04:20.196Z,18.23
2022-08-22T07:07:31.935Z,18.22
2022-08-22T07:10:39.960Z,18.17
2022-08-22T07:13:51.824Z,18.16
2022-08-22T07:17:01.189Z,18.16
2022-08-22T07:20:22.744Z,18.18
2022-08-22T07:23:37.372Z,18.19
2022-08-22T07:26:54.655Z,18.22
2022-08-22T07:30:11.422Z,18.29
2022-08-22T07:33:44.129Z,18.36
2022-08-22T07:36:57.203Z,18.44
2022-08-22T07:40:19.157Z,18.55
2022-08-22T07:43:32.183Z,18.65
2022-08-22T07:46:41.575Z,18.74
2022-08-22T07:49:56.333Z,18.83
2022-08-22T07:53:09.572Z,18.96
2022-08-22T07:56:26.006Z,18.98
2022-08-22T07:59:34.315Z,18.94
2022-08-22T08:02:43.316Z,18.93
2022-08-22T08:05:49.758Z,18.95
2022-08-22T08:08:58.545Z,18.87
2022-08-22T08:12:08.939Z,18.72
2022-08-22T08:15:22.801Z,18.56
2022-08-22T08:18:34.130Z,18.43
2022-08-22T08:21:44.001Z,18.34
2022-08-22T08:24:51.853Z,18.32
2022-08-22T08:28:18.586Z,18.34
2022-08-22T08:31:32.121Z,18.36
2022-08-22T08:34:41.603Z,18.40
2022-08-22T08:37:53.001Z,18.37
2022-08-22T08:41:34.944Z,18.30
2022-08-22T08:45:06.702Z,18.21
2022-08-22T08:48:42.151Z,18.18
2022-08-22T08:52:14.878Z,18.14
2022-08-22T08:55:27.793Z,18.12
2022-08-22T08:58:44.001Z,18.10
2022-08-22T09:02:09.633Z,18.14
2022-08-22T09:05:51.310Z,18.16
2022-08-22T09:09:21.356Z,18.15
2022-08-22T09:13:00.104Z,18.09
2022-08-22T09:16:33.470Z,18.08
2022-08-22T09:20:22.218Z,18.13
2022-08-22T09:24:18.652Z,18.25
2022-08-22T09:27:35.723Z,18.21
2022-08-22T09:30:56.291Z,18.14
2022-08-22T09:34:11.588Z,18.08
2022-08-22T09:37:29.241Z,18.12
2022-08-22T09:40:43.515Z,18.17
2022-08-22T09:43:55.943Z,18.21
2022-08-22T09:47:13.734Z,18.28
2022-08-22T09:50:31.003Z,18.35
2022-08-22T09:54:01.050Z,18.45
2022-08-22T09:57:22.500Z,18.54
2022-08-22T10:00:35.857Z,18.60
2022-08-22T10:04:19.280Z,18.66
2022-08-22T10:07:46.042Z,18.65
2022-08-22T10:11:17.685Z,18.75
2022-08-22T10:14:28.216Z,18.72
2022-08-22T10:17:41.068Z,18.76
2022-08-22T10:20:59.260Z,18.85
2022-08-22T10:24:25.822Z,18.91
2022-08-22T10:27:50.301Z,18.99
2022-08-22T10:31:11.290Z,19.11
2022-08-22T10:34:23.746Z,19.23
2022-08-22T10:37:39.625Z,19.27
2022-08-22T10:40:57.805Z,19.27
2022-08-22T10:44:18.653Z,19.29
2022-08-22T10:47:33.343Z,19.37
2022-08-22T10:50:45.925Z,19.41
2022-08-22T10:54:03.332Z,19.44
2022-08-22T10:57:32.525Z,19.47
2022-08-22T11:00:50.443Z,19.53
2022-08-22T11:04:08.223Z,19.57
2022-08-22T11:07:44.485Z,19.60
2022-08-22T11:11:11.735Z,19.66
2022-08-22T11:14:34.677Z,19.72
2022-08-22T11:18:26.449Z,19.77
2022-08-22T11:21:51.018Z,19.73
2022-08-22T11:25:38.530Z,19.70
2022-08-22T11:29:13.710Z,19.71
2022-08-22T11:32:34.716Z,19.70
2022-08-22T11:35:48.000Z,19.67
2022-08-22T11:39:17.903Z,19.63
2022-08-22T11:42:35.205Z,19.60
2022-08-22T11:45:57.070Z,19.61
2022-08-22T11:49:16.605Z,19.69
2022-08-22T11:52:51.705Z,19.80
2022-08-22T11:56:11.611Z,20.07
2022-08-22T11:59:26.299Z,20.28
2022-08-22T12:02:47.445Z,20.38
2022-08-22T12:05:58.801Z,20.41
2022-08-22T12:09:42.565Z,20.41
2022-08-22T12:13:01.440Z,20.34
2022-08-22T12:16:15.901Z,20.27
2022-08-22T12:19:32.832Z,20.27
2022-08-22T12:22:52.658Z,20.28
2022-08-22T12:26:14.431Z,20.43
2022-08-22T12:29:39.909Z,20.61
2022-08-22T12:33:21.956Z,20.87
2022-08-22T12:36:49.828Z,21.23
2022-08-22T12:40:26.383Z,21.60
2022-08-22T12:43:51.402Z,21.87
2022-08-22T12:47:17.460Z,21.94
2022-08-22T12:50:34.755Z,22.13
2022-08-22T12:54:15.230Z,22.22
2022-08-22T12:57:34.521Z,22.19
2022-08-22T13:00:48.443Z,22.11
2022-08-22T13:04:03.998Z,22.01
2022-08-22T13:07:22.713Z,21.98
2022-08-22T13:10:45.550Z,21.97
2022-08-22T13:13:56.235Z,21.86
2022-08-22T13:17:09.763Z,21.80
2022-08-22T13:20:36.115Z,21.76
2022-08-22T13:23:51.389Z,21.76
2022-08-22T13:27:08.374Z,21.73
2022-08-22T13:30:23.682Z,21.63
2022-08-22T13:33:37.785Z,21.62
2022-08-22T13:36:52.154Z,21.74
2022-08-22T13:40:04.784Z,21.91
2022-08-22T13:43:14.501Z,22.27
2022-08-22T13:46:30.412Z,22.45
2022-08-22T13:49:48.261Z,22.64
2022-08-22T13:53:01.330Z,22.83
2022-08-22T13:56:15.636Z,22.88
2022-08-22T13:59:50.265Z,22.96
2022-08-22T14:03:05.375Z,22.98
2022-08-22T14:06:37.767Z,23.01
2022-08-22T14:09:56.099Z,22.86
2022-08-22T14:13:33.910Z,22.76
2022-08-22T14:16:50.956Z,22.54
2022-08-22T14:20:04.179Z,22.38
2022-08-22T14:23:27.014Z,22.27
2022-08-22T14:26:47.744Z,22.01
2022-08-22T14:29:57.741Z,21.79
2022-08-22T14:33:16.653Z,21.62
2022-08-22T14:36:29.061Z,21.50
2022-08-22T14:39:43.988Z,21.41
2022-08-22T14:42:54.405Z,21.28
2022-08-22T14:46:07.316Z,21.22
2022-08-22T14:49:29.716Z,21.25
2022-08-22T14:52:41.601Z,21.30
2022-08-22T14:55:59.932Z,21.32
2022-08-22T14:59:15.863Z,21.32
2022-08-22T15:02:31.819Z,21.37
2022-08-22T15:05:49.096Z,21.52
2022-08-22T15:08:57.212Z,21.56
2022-08-22T15:12:25.165Z,21.57
2022-08-22T15:15:49.506Z,21.60
2022-08-22T15:19:28.444Z,21.56
2022-08-22T15:22:35.473Z,21.46
2022-08-22T15:25:46.995Z,21.38
2022-08-22T15:29:07.361Z,21.32
2022-08-22T15:32:14.250Z,21.18
2022-08-22T15:35:32.347Z,21.09
2022-08-22T15:38:42.074Z,21.06
2022-08-22T15:41:54.067Z,21.10
2022-08-22T15:45:07.093Z,21.09
2022-08-22T15:48:31.358Z,21.15
2022-08-22T15:51:44.266Z,21.29
2022-08-22T15:55:22.294Z,21.47
2022-08-22T15:58:29.612Z,21.12
2022-08-22T16:01:49.820Z,20.86
2022-08-22T16:05:06.962Z,20.48
2022-08-22T16:08:15.061Z,20.20
2022-08-22T16:11:33.698Z,20.08
2022-08-22T16:14:53.232Z,19.96
2022-08-22T16:18:04.068Z,19.85
2022-08-22T16:21:12.494Z,19.78
2022-08-22T16:24:33.912Z,19.74
2022-08-22T16:27:58.568Z,19.67
2022-08-22T16:31:20.765Z,19.66
2022-08-22T16:34:42.327Z,19.62
2022-08-22T16:37:53.044Z,19.67
2022-08-22T16:40:59.912Z,19.74
2022-08-22T16:44:45.458Z,19.80
2022-08-22T16:47:58.189Z,19.78
2022-08-22T16:51:14.623Z,19.83
2022-08-22T16:54:45.686Z,19.89
2022-08-22T16:58:06.961Z,19.93
2022-08-22T17:01:20.958Z,19.94
2022-08-22T17:04:36.684Z,19.95
2022-08-22T17:08:00.088Z,19.96
2022-08-22T17:11:26.401Z,19.96
2022-08-22T17:14:43.925Z,19.95
2022-08-22T17:18:11.653Z,19.89
2022-08-22T17:21:26.186Z,19.85
2022-08-22T17:24:45.258Z,19.83
2022-08-22T17:27:58.735Z,19.77
2022-08-22T17:31:18.579Z,19.72
2022-08-22T17:34:35.827Z,19.68
2022-08-22T17:37:51.957Z,19.65
2022-08-22T17:41:10.016Z,19.61
2022-08-22T17:44:27.929Z,19.59
2022-08-22T17:47:42.451Z,19.57
2022-08-22T17:50:55.326Z,19.58
2022-08-22T17:54:07.387Z,19.56
2022-08-22T17:57:29.286Z,19.54
2022-08-22T18:00:38.310Z,19.49
2022-08-22T18:03:53.975Z,19.49
2022-08-22T18:07:08.981Z,19.48
2022-08-22T18:10:25.087Z,19.45
2022-08-22T18:13:45.895Z,19.47
2022-08-22T18:16:56.699Z,19.47
2022-08-22T18:20:10.338Z,19.47
2022-08-22T18:23:35.950Z,19.50
2022-08-22T18:26:54.332Z,19.50
2022-08-22T18:30:09.145Z,19.52
2022-08-22T18:33:24.044Z,19.55
2022-08-22T18:36:35.728Z,19.56
2022-08-22T18:39:52.748Z,19.56
2022-08-22T18:43:15.260Z,19.55
2022-08-22T18:46:53.690Z,19.56
2022-08-22T18:50:24.661Z,19.55
2022-08-22T18:53:40.665Z,19.55
2022-08-22T18:56:54.351Z,19.51
2022-08-22T19:00:11.488Z,19.48
2022-08-22T19:03:36.466Z,19.46
2022-08-22T19:07:00.878Z,19.46
2022-08-22T19:10:37.420Z,19.48
2022-08-22T19:14:00.394Z,19.46
2022-08-22T19:17:37.340Z,19.44
2022-08-22T19:21:00.270Z,19.42
2022-08-22T19:24:14.631Z,19.38
2022-08-22T19:27:31.474Z,19.37
2022-08-22T19:30:45.540Z,19.34
2022-08-22T19:33:53.396Z,19.29
2022-08-22T19:37:33.126Z,19.29
2022-08-22T19:41:03.408Z,19.28
2022-08-22T19:44:14.776Z,19.25
2022-08-22T19:47:32.553Z,19.28
2022-08-22T19:50:40.594Z,19.27
2022-08-22T19:53:59.377Z,19.31
2022-08-22T19:57:19.979Z,19.34
2022-08-22T20:00:30.360Z,19.34
2022-08-22T20:03:48.050Z,19.38
2022-08-22T20:07:04.230Z,19.41
2022-08-22T20:10:34.063Z,19.43
2022-08-22T20:13:44.111Z,19.44
2022-08-22T20:17:10.750Z,19.47
2022-08-22T20:20:58.873Z,19.47
2022-08-22T20:24:10.266Z,19.45
2022-08-22T20:27:20.347Z,19.48
2022-08-22T20:30:35.860Z,19.51
2022-08-22T20:33:46.035Z,19.50
2022-08-22T20:37:09.806Z,19.50
2022-08-22T20:40:56.554Z,19.54
2022-08-22T20:44:12.686Z,19.56
2022-08-22T20:47:26.616Z,19.59
2022-08-22T20:50:45.264Z,19.62
2022-08-22T20:53:55.348Z,19.69
2022-08-22T20:57:04.455Z,19.74
2022-08-22T21:00:14.140Z,19.81
2022-08-22T21:03:41.874Z,19.88
2022-08-22T21:06:47.997Z,19.88
2022-08-22T21:10:21.606Z,19.92
2022-08-22T21:13:30.505Z,19.97
2022-08-22T21:16:37.419Z,20.02
2022-08-22T21:19:46.110Z,20.04
2022-08-22T21:22:53.023Z,20.05
2022-08-22T21:26:05.878Z,20.02
2022-08-22T21:29:26.742Z,19.88
2022-08-22T21:32:44.945Z,19.68
2022-08-22T21:35:58.902Z,19.53
2022-08-22T21:39:08.116Z,19.48
2022-08-22T21:42:24.208Z,19.44
2022-08-22T21:45:33.529Z,19.34
2022-08-22T21:48:44.021Z,19.28
2022-08-22T21:51:53.513Z,19.22
2022-08-22T21:55:19.735Z,19.14
2022-08-22T21:58:35.621Z,19.02
2022-08-22T22:01:43.335Z,18.97
2022-08-22T22:04:52.046Z,18.94
2022-08-22T22:08:03.261Z,18.95
2022-08-22T22:11:14.599Z,18.95
2022-08-22T22:14:22.868Z,18.91
2022-08-22T22:17:28.914Z,18.81
2022-08-22T22:20:36.834Z,18.64
2022-08-22T22:23:45.893Z,18.56
2022-08-22T22:26:52.635Z,18.51
2022-08-22T22:29:58.759Z,18.45
2022-08-22T22:33:07.381Z,18.40
2022-08-22T22:36:18.380Z,18.36
2022-08-22T22:39:28.050Z,18.31
2022-08-22T22:42:34.063Z,18.28
2022-08-22T22:45:41.119Z,18.29
2022-08-22T22:48:47.817Z,18.27
2022-08-22T22:51:54.885Z,18.21
2022-08-22T22:55:06.424Z,18.16
2022-08-22T22:58:15.914Z,18.12
2022-08-22T23:01:29.099Z,18.07
2022-08-22T23:04:38.629Z,18.04
2022-08-22T23:07:44.991Z,18.01
2022-08-22T23:10:54.826Z,18.01
2022-08-22T23:14:01.064Z,17.97
2022-08-22T23:17:08.650Z,17.92
2022-08-22T23:20:15.003Z,17.91
2022-08-22T23:23:21.731Z,17.88
2022-08-22T23:26:30.828Z,17.89
2022-08-22T23:29:41.308Z,17.90
2022-08-22T23:32:47.823Z,17.89
2022-08-22T23:35:59.777Z,17.90
2022-08-22T23:39:09.222Z,17.86
2022-08-22T23:42:20.147Z,17.87
2022-08-22T23:45:26.009Z,17.87
2022-08-22T23:48:32.764Z,17.88
2022-08-22T23:51:39.413Z,17.90
2022-08-22T23:54:46.297Z,17.94
2022-08-22T23:57:57.647Z,17.95
